Latest Coastal Weather Observations for Proserpine

IDQ60701

Issued at 10:45 am EST Tuesday 25 November 2014 (issued every 10 minutes, with the page automatically refreshed every 10 minutes)

About coastal observations | Map of coastal stations | Coastal observations for QLD | Marine services | Other Formats
Station Details ID: 033247 Name: PROSERPINE AIRPORT Lat: -20.49 Lon: 148.56 Height: 19.7 m
Data from the previous 72 hours. | See also: Recent months at Proserpine
Date/Time
EST
Temp

°C
Wind Pressure Rain
since 9am
mm
Weather Cloud Vis
km
Sea
Height
m
Swell
Dir
 
Speed
knots
Gust
knots
hPa Trend Height
m
Period
s
Dir
25/10:30am 31.1 ESE 12 16 1013.7 - 0.0 - - 10 - - - -
25/10:00am 30.0 ESE 12 19 1013.8 - 0.0 - Partly cloudy 10 - - - -
25/09:30am 28.6 SE 13 18 1013.7 - 0.0 - Partly cloudy 10 - - - -
25/09:00am 28.2 ESE 10 15 1013.7 - 0.0 Fine Partly cloudy 25 - - - -
25/08:30am 28.3 E 10 14 1013.9 - 0.0 - Partly cloudy 10 - - - -
25/08:00am 28.1 E 10 13 1013.7 - 0.0 - Partly cloudy 10 - - - -
25/07:30am 27.5 SE 7 11 1013.6 - 0.0 - Partly cloudy 10 - - - -
25/07:00am 26.3 ESE 5 7 1013.6 - 0.0 - - 10 - - - -
25/06:30am 24.6 S 4 5 1013.5 - 0.0 - - 10 - - - -
25/06:00am 22.5 S 3 4 1013.3 - 0.0 - Mostly clear 10 - - - -
25/05:30am 21.3 SSW 3 5 1013.1 - 0.0 - Partly cloudy 10 - - - -
25/05:00am 21.4 S 4 5 1012.8 - 0.0 - - 10 - - - -
25/04:30am 21.3 SW 2 5 1012.7 - 0.0 - Partly cloudy 10 - - - -
25/04:00am 21.5 SSW 4 5 1012.5 - 0.0 - - 10 - - - -
25/03:30am 21.5 SSW 4 4 1012.5 - 0.0 - - 10 - - - -
25/03:00am 21.8 SSW 3 4 1012.4 - 0.0 - - 10 - - - -
25/02:30am 21.8 SW 4 5 1012.6 - 0.0 - - 10 - - - -
25/02:00am 22.3 SW 2 3 1012.9 - 0.0 - Partly cloudy 10 - - - -
25/01:30am 22.9 S 2 4 1013.1 - 0.0 - Cloudy 10 - - - -
25/01:00am 22.6 SSW 4 5 1013.3 - 0.0 - Partly cloudy 10 - - - -
25/12:30am 22.1 SSW 2 4 1013.4 - 0.0 - - 10 - - - -
25/12:00am 22.5 CALM 0 0 1013.9 - 0.0 - Mostly clear 10 - - - -
 
Date/Time
EST
Temp

°C
Wind Pressure Rain
since 9am
mm
Weather Cloud Vis
km
Sea
Height
m
Swell
Dir
 
Speed
knots
Gust
knots
hPa Trend Height
m
Period
s
Dir
24/11:30pm 23.1 CALM 0 0 1014.2 - 0.0 - Partly cloudy 10 - - - -
24/11:00pm 23.4 CALM 0 0 1014.4 - 0.0 - Partly cloudy 10 - - - -
24/10:30pm 23.4 SSW 5 6 1014.5 - 0.0 - Partly cloudy 10 - - - -
24/10:00pm 23.3 SSW 1 3 1014.6 - 0.0 - Partly cloudy 10 - - - -
24/09:30pm 24.0 SSE 2 3 1014.6 - 0.0 - Partly cloudy 10 - - - -
24/09:00pm 24.1 ESE 4 5 1014.3 - 0.0 - - 10 - - - -
24/08:30pm 23.8 ESE 5 5 1014.0 - 0.0 - - 10 - - - -
24/08:00pm 24.5 ESE 5 6 1013.7 - 0.0 - - 10 - - - -
24/07:30pm 25.3 E 7 10 1013.4 - 0.0 - - 10 - - - -
24/07:00pm 25.8 E 8 11 1013.1 - 0.0 - Partly cloudy 10 - - - -
24/06:30pm 26.4 E 8 13 1012.8 - 0.0 - Partly cloudy 10 - - - -
24/06:00pm 27.0 E 13 17 1012.1 - 0.0 - - 10 - - - -
24/05:30pm 27.6 ESE 13 18 1011.8 - 0.0 - - 10 - - - -
24/05:00pm 28.8 ESE 13 18 1011.7 - 0.0 - Partly cloudy 10 - - - -
24/04:30pm 29.6 E 14 20 1011.6 - 0.0 - - 10 - - - -
24/04:00pm 29.4 ESE 14 20 1011.6 - 0.0 - - 10 - - - -
24/03:30pm 30.7 E 14 25 1011.6 - 0.0 - Partly cloudy 10 - - - -
24/03:21pm 30.7 E 15 25 1011.6 - 0.0 - - 10 - - - -
24/03:00pm 30.9 E 13 20 1011.7 - 0.0 Fine Mostly cloudy 25 - - - -
24/02:30pm 31.4 E 12 17 1012.1 - 0.0 - - 10 - - - -
24/02:00pm 32.3 ESE 15 22 1012.3 - 0.0 - Partly cloudy 10 - - - -
24/01:30pm 33.3 E 14 21 1012.6 - 0.0 - - 10 - - - -
24/01:00pm 31.6 ESE 14 21 1012.9 - 0.0 - Partly cloudy 10 - - - -
24/12:30pm 31.6 ESE 16 21 1013.3 - 0.0 - Partly cloudy 10 - - - -
24/12:00pm 30.6 ESE 13 20 1013.7 - 0.0 - Partly cloudy 10 - - - -
24/11:30am 32.8 E 12 18 1013.9 - 0.0 - Partly cloudy 10 - - - -
24/11:00am 30.0 ESE 12 17 1014.4 - 0.0 - Partly cloudy 10 - - - -
24/10:30am 31.1 ESE 12 18 1014.6 - 0.0 - Partly cloudy 10 - - - -
24/10:00am 30.1 ESE 11 16 1014.9 - 0.0 - Partly cloudy 10 - - - -
24/09:30am 29.0 SE 11 14 1015.1 - 0.0 - Partly cloudy 10 - - - -
24/09:00am 29.9 E 5 14 1015.1 - 0.0 Fine Mostly cloudy 25 - - - -
24/08:30am 28.3 ENE 8 13 1015.1 - 0.0 - Partly cloudy 10 - - - -
24/08:00am 26.8 ENE 7 12 1015.1 - 0.0 - Partly cloudy 10 - - - -
24/07:30am 26.7 SSE 4 8 1015.1 - 0.0 - Partly cloudy 10 - - - -
24/07:00am 24.5 SSE 4 5 1015.1 - 0.0 - Partly cloudy 10 - - - -
24/06:30am 23.7 S 4 5 1014.7 - 0.0 - - 10 - - - -
24/06:00am 22.1 SSW 4 5 1014.4 - 0.0 - - 10 - - - -
24/05:30am 20.4 SSW 3 5 1014.3 - 0.0 - - 10 - - - -
24/05:00am 19.9 WNW 2 4 1014.1 - 0.0 - - 10 - - - -
24/04:30am 20.2 SSW 2 3 1013.9 - 0.0 - - 10 - - - -
24/04:00am 19.7 W 2 3 1013.9 - 0.0 - - 10 - - - -
24/03:30am 20.4 SSW 3 4 1013.7 - 0.0 - - 10 - - - -
24/03:00am 21.3 SSW 2 3 1013.5 - 0.0 - - 10 - - - -
24/02:30am 21.0 SSW 3 4 1013.6 - 0.0 - - 10 - - - -
24/02:00am 21.5 SW 3 5 1013.9 - 0.0 - - 10 - - - -
24/01:30am 20.9 S 2 5 1014.3 - 0.0 - - 10 - - - -
24/01:00am 22.2 E 3 5 1014.5 - 0.0 - Partly cloudy 10 - - - -
24/12:30am 22.8 CALM 0 0 1015.0 - 0.0 - - 10 - - - -
24/12:00am 22.4 CALM 0 0 1015.3 - 0.0 - Mostly clear 10 - - - -
 
Date/Time
EST
Temp

°C
Wind Pressure Rain
since 9am
mm
Weather Cloud Vis
km
Sea
Height
m
Swell
Dir
 
Speed
knots
Gust
knots
hPa Trend Height
m
Period
s
Dir
23/11:30pm 22.4 CALM 0 0 1015.6 - 0.0 - - 10 - - - -
23/11:00pm 23.4 ESE 5 6 1015.7 - 0.0 - - 10 - - - -
23/10:30pm 23.0 ESE 5 6 1015.8 - 0.0 - - 10 - - - -
23/10:00pm 23.7 E 5 6 1015.7 - 0.0 - - 10 - - - -
23/09:30pm 24.1 E 3 4 1015.4 - 0.0 - - 10 - - - -
23/09:00pm 24.0 ESE 4 5 1015.0 - 0.0 - - 10 - - - -
23/08:30pm 24.4 E 5 7 1014.8 - 0.0 - - 10 - - - -
23/08:00pm 24.8 E 6 7 1014.5 - 0.0 - - 10 - - - -
23/07:30pm 25.2 E 7 9 1014.2 - 0.0 - - 10 - - - -
23/07:00pm 25.6 E 7 10 1013.9 - 0.0 - - 10 - - - -
23/06:30pm 26.4 E 8 11 1013.6 - 0.0 - - 10 - - - -
23/06:00pm 27.6 E 11 15 1013.1 - 0.0 - - 10 - - - -
23/05:30pm 28.4 ESE 12 16 1012.9 - 0.0 - - 10 - - - -
23/05:00pm 29.3 ESE 13 18 1012.8 - 0.0 - - 10 - - - -
23/04:30pm 29.6 E 13 19 1012.8 - 0.0 - - 10 - - - -
23/04:00pm 30.2 ESE 13 18 1012.7 - 0.0 - - 10 - - - -
23/03:30pm 30.8 ESE 14 23 1012.8 - 0.0 - - 10 - - - -
23/03:00pm 31.8 ESE 13 18 1012.9 - 0.0 Fine Partly cloudy 25 - - - -
23/02:30pm 31.9 E 13 19 1013.2 - 0.0 - - 10 - - - -
23/02:00pm 32.0 E 14 19 1013.4 - 0.0 - - 10 - - - -
23/01:30pm 31.7 E 14 20 1013.7 - 0.0 - - 10 - - - -
23/01:00pm 31.7 E 13 19 1014.1 - 0.0 - Partly cloudy 10 - - - -
23/12:30pm 32.1 ESE 14 21 1014.4 - 0.0 - - 10 - - - -
23/12:00pm 32.1 ESE 12 19 1014.6 - 0.0 - - 10 - - - -
23/11:30am 32.2 ESE 12 18 1015.0 - 0.0 - - 10 - - - -
23/11:00am 31.5 SE 12 18 1015.5 - 0.0 - Partly cloudy 10 - - - -
23/10:30am 31.1 SE 11 17 1015.8 - 0.0 - Partly cloudy 10 - - - -
23/10:00am 30.3 ESE 11 15 1015.9 - 0.0 - Partly cloudy 10 - - - -
23/09:30am 31.0 E 7 13 1016.0 - 0.0 - Partly cloudy 10 - - - -
23/09:00am 28.9 E 6 11 1016.0 - 0.0 Fine Mostly cloudy 25 - - - -
23/08:30am 29.1 ENE 5 9 1016.0 - 0.0 - Partly cloudy 10 - - - -
23/08:00am 28.0 ESE 6 9 1015.9 - 0.0 - Partly cloudy 10 - - - -
23/07:30am 27.3 ESE 6 11 1015.8 - 0.0 - - 10 - - - -
23/07:00am 26.1 S 6 8 1015.5 - 0.0 - - 10 - - - -
23/06:30am 23.6 SSW 4 5 1015.3 - 0.0 - - 10 - - - -
23/06:00am 21.7 SW 1 4 1014.9 - 0.0 - - 10 - - - -
23/05:30am 20.6 SSW 6 7 1014.6 - 0.0 - - 10 - - - -
23/05:00am 19.7 CALM 0 0 1014.2 - 0.0 - - 10 - - - -
23/04:30am 20.4 CALM 0 0 1013.9 - 0.0 - - 10 - - - -
23/04:00am 20.5 SSW 4 5 1013.7 - 0.0 - - 10 - - - -
23/03:30am 20.6 SSW 3 5 1013.6 - 0.0 - - 10 - - - -
23/03:00am 20.6 SSW 2 4 1013.6 - 0.0 - - 10 - - - -
23/02:30am 21.0 SSW 2 4 1013.6 - 0.0 - - 10 - - - -
23/02:00am 21.1 WSW 4 5 1013.9 - 0.0 - - 10 - - - -
23/01:30am 21.2 CALM 0 0 1014.1 - 0.0 - - 10 - - - -
23/01:00am 21.3 CALM 0 0 1014.4 - 0.0 - - 10 - - - -
23/12:30am 21.9 CALM 0 0 1014.6 - 0.0 - - 10 - - - -
23/12:00am 22.2 CALM 0 0 1014.9 - 0.0 - - 10 - - - -
 
Date/Time
EST
Temp

°C
Wind Pressure Rain
since 9am
mm
Weather Cloud Vis
km
Sea
Height
m
Swell
Dir
 
Speed
knots
Gust
knots
hPa Trend Height
m
Period
s
Dir
22/11:30pm 22.4 CALM 0 0 1015.1 - 0.0 - - 10 - - - -
22/11:00pm 22.6 E 3 4 1015.3 - 0.0 - - 10 - - - -
22/10:30pm 23.2 ESE 3 4 1015.5 - 0.0 - - 10 - - - -
22/10:00pm 23.0 E 4 5 1015.3 - 0.0 - - 10 - - - -
22/09:30pm 24.0 E 4 5 1014.9 - 0.0 - Partly cloudy 10 - - - -
22/09:00pm 24.8 E 4 5 1014.5 - 0.0 - Mostly cloudy 10 - - - -
22/08:30pm 25.0 NE 1 4 1014.3 - 0.0 - Partly cloudy 10 - - - -
22/08:00pm 25.4 CALM 0 0 1014.0 - 0.0 - - 10 - - - -
22/07:30pm 25.8 NE 4 6 1013.8 - 0.0 - Partly cloudy 10 - - - -
22/07:00pm 26.5 NE 3 7 1013.2 - 0.0 - Partly cloudy 10 - - - -
22/06:30pm 27.1 E 6 9 1012.7 - 0.0 - - 10 - - - -
22/06:00pm 28.1 NNE 5 8 1012.1 - 0.0 - Cloudy 10 - - - -
22/05:30pm 29.0 NNE 8 10 1011.9 - 0.0 - Partly cloudy 10 - - - -
22/05:00pm 30.0 NNE 8 11 1011.5 - 0.0 - Partly cloudy 10 - - - -
22/04:30pm 31.2 NE 7 10 1011.3 - 0.0 - Cloudy 10 - - - -
22/04:00pm 31.7 ENE 7 9 1011.3 - 0.0 - Partly cloudy 10 - - - -
22/03:30pm 32.5 SE 10 15 1011.1 - 0.0 - Partly cloudy 10 - - - -
22/03:00pm 33.7 ESE 9 13 1011.3 - 0.0 Haze Mostly cloudy 20 - - - -
22/02:30pm 33.4 E 9 15 1011.8 - 0.0 - - 10 - - - -
22/02:00pm 33.1 ESE 11 17 1012.2 - 0.0 - - 10 - - - -
22/01:30pm 32.3 SE 6 16 1012.8 - 0.0 - Partly cloudy 10 - - - -
22/01:00pm 32.5 SE 14 17 1012.8 - 0.0 - Partly cloudy 10 - - - -
22/12:30pm 32.5 E 12 15 1013.3 - 0.0 - Partly cloudy 10 - - - -
22/12:00pm 32.6 E 11 16 1013.6 - 0.0 - Mostly clear 10 - - - -
22/11:30am 32.7 E 7 18 1014.0 - 0.0 - Partly cloudy 10 - - - -
22/11:00am 31.5 E 6 12 1014.5 - 0.0 - - 10 - - - -

Other Formats:

Comma delimited format used in spreadsheet applications
http://www.bom.gov.au/fwo/IDQ60701/IDQ60701.94365.axf

JavaScript Object Notation format (JSON) in row-major order
http://www.bom.gov.au/fwo/IDQ60701/IDQ60701.94365.json